NCAR-RAP Real-Time Weather Data

Output produced by METARs form (17 October 2018  16:26 UTC)
found at http://weather.rap.ucar.edu/surface/
 
RJOC 171100Z 10004KT 9999 FEW015 SCT/// 16/12 Q1013
RJOC 171000Z 11008KT 9999 FEW015 SCT080 BKN/// 16/12 Q1013
RJOC 170900Z 09010KT 9999 FEW020 SCT080 BKN/// 18/12 Q1013
RJOC 170800Z 06014KT 9999 FEW020 SCT030 BKN/// 18/13 Q1013
RJOC 170700Z 07014KT 9999 -SHRA FEW020 SCT030 BKN070 20/13 Q1013
RJOC 170600Z 05010KT 9999 FEW020 20/12 Q1012
RJOC 170500Z 03005KT 9999 FEW020 SCT070 20/10 Q1012
RJOC 170400Z 09004KT 030V130 9999 FEW020 SCT070 19/11 Q1012
RJOC 170300Z 08007KT 9999 FEW020 BKN070 18/12 Q1013
RJOC 170200Z 01003KT 9999 VCSH FEW015 SCT030 FEW030TCU BKN070 19/11 Q1013
RJOC 170100Z 34004KT 9999 FEW015 SCT070 18/13 Q1013
RJOC 170000Z 16003KT 130V210 9999 FEW010 FEW030CB 17/12 Q1013
RJOC 162300Z 17004KT 9999 FEW005 16/13 Q1013
RJOC 162200Z 17004KT 9999 FEW003 SCT050 14/13 Q1013
RJOC 162130Z 05007KT 9999 VCSH FEW005 FEW030TCU SCT050 14/13 Q1013
RJOC 162110Z 07004KT 030V090 9999 FEW003 FEW030TCU SCT035 14/13 Q1013 RMK 1ST003 1TCU030 3CU035 A2992 TCU 20KM NE MOV E
RJOC 161100Z VRB02KT 9999 FEW030 BKN150 BKN/// 16/12 Q1012
RJOC 161000Z 01005KT 9999 FEW030 SCT040 BKN150 17/13 Q1012
RJOC 160900Z 03005KT 9999 FEW030 SCT040 BKN150 20/12 Q1013
RJOC 160800Z 01007KT 9999 FEW035 SCT040 BKN150 20/11 Q1012
RJOC 160700Z 02010KT 9999 FEW035 BKN150 BKN/// 20/11 Q1012
RJOC 160600Z 02010KT 9999 FEW035 SCT170 BKN/// 21/10 Q1012
RJOC 160500Z 03008KT 9999 FEW035 SCT170 BKN/// 21/10 Q1012
RJOC 160400Z 03006KT 9999 FEW035 21/10 Q1013
RJOC 160300Z 04004KT 9999 FEW030 BKN/// 21/10 Q1014
RJOC 160200Z 36002KT 9999 FEW030 SCT035 BKN/// 20/10 Q1015
RJOC 160100Z 14003KT 100V180 9999 FEW025 SCT035 BKN/// 19/12 Q1015
RJOC 160000Z 15004KT 9999 FEW030 BKN/// 16/11 Q1016
RJOC 152300Z 16006KT 9999 FEW030 BKN/// 13/11 Q1016
RJOC 152200Z 17005KT 9999 FEW030 SCT040 BKN/// 12/10 Q1016
RJOC 152130Z 16006KT 9999 FEW030 BKN/// 11/10 Q1016
RJOC 152110Z 16004KT 9999 FEW030 BKN/// 11/10 Q1016 RMK 1CU030 A3001
RJOC 151100Z 18003KT 9999 FEW030 SCT/// 15/11 Q1018
RJOC 151000Z 17002KT 9999 FEW030 15/11 Q1017
RJOC 150900Z VRB02KT 9999 FEW030 16/11 Q1017
RJOC 150800Z 33007KT 9999 FEW035 19/10 Q1017
RJOC 150700Z 32009KT 9999 FEW035 21/09 Q1016
RJOC 150600Z 32009KT 9999 FEW035 22/09 Q1016
RJOC 150500Z 33008KT 9999 FEW035 22/09 Q1016